Terminal Aerodrome Forecast
Issued by NWS

Home | Current Version | Previous Version | Text Only | Print | Product List | Glossary On
Versions: 1 2 3 4 5 6 7 8 9 10 11 12 13 14 15 16 17 18 19 20 21
000
FTUS45 KSLC 281120
TAFPVU
TAF
KPVU 281120Z 2812/2912 34011KT P6SM VCSH SCT030 BKN060
     FM281500 30011G18KT 2SM -SHSN BR SCT007 BKN015
     FM282000 30017G26KT P6SM VCSH SCT020 BKN040
     FM290400 32009KT P6SM SCT040 BKN080=

USA.gov is the U.S. government's official web portal to all federal, state and local government web resources and services.